sensor_id;sensor_type;location;lat;lon;timestamp;temperature;humidity
65582;DHT22;52231;40.090;18.348;2023-05-10T00:01:03;17.40;80.20
65582;DHT22;52231;40.090;18.348;2023-05-10T00:03:32;17.40;80.20
65582;DHT22;52231;40.090;18.348;2023-05-10T00:06:01;17.30;80.10
65582;DHT22;52231;40.090;18.348;2023-05-10T00:08:30;17.30;80.00
65582;DHT22;52231;40.090;18.348;2023-05-10T00:10:58;17.40;79.90
65582;DHT22;52231;40.090;18.348;2023-05-10T00:13:26;17.40;79.50
65582;DHT22;52231;40.090;18.348;2023-05-10T00:15:55;17.40;79.30
65582;DHT22;52231;40.090;18.348;2023-05-10T00:18:23;17.30;79.40
65582;DHT22;52231;40.090;18.348;2023-05-10T00:20:51;17.30;79.40
65582;DHT22;52231;40.090;18.348;2023-05-10T00:23:19;17.30;79.20
65582;DHT22;52231;40.090;18.348;2023-05-10T00:25:47;17.30;79.00
65582;DHT22;52231;40.090;18.348;2023-05-10T00:28:15;17.30;79.10
65582;DHT22;52231;40.090;18.348;2023-05-10T00:30:43;17.30;79.00
65582;DHT22;52231;40.090;18.348;2023-05-10T00:33:11;17.30;78.80
65582;DHT22;52231;40.090;18.348;2023-05-10T00:35:40;17.30;78.70
65582;DHT22;52231;40.090;18.348;2023-05-10T00:38:09;17.30;78.80
65582;DHT22;52231;40.090;18.348;2023-05-10T00:40:37;17.30;78.80
65582;DHT22;52231;40.090;18.348;2023-05-10T00:43:11;17.30;78.90
65582;DHT22;52231;40.090;18.348;2023-05-10T00:45:40;17.30;79.00
65582;DHT22;52231;40.090;18.348;2023-05-10T00:48:09;17.30;78.90
65582;DHT22;52231;40.090;18.348;2023-05-10T00:50:37;17.30;79.00
65582;DHT22;52231;40.090;18.348;2023-05-10T00:53:08;17.30;78.80
65582;DHT22;52231;40.090;18.348;2023-05-10T00:55:36;17.30;78.90
65582;DHT22;52231;40.090;18.348;2023-05-10T00:58:05;17.30;78.80
65582;DHT22;52231;40.090;18.348;2023-05-10T01:00:33;17.30;78.90
65582;DHT22;52231;40.090;18.348;2023-05-10T01:03:02;17.30;78.90
65582;DHT22;52231;40.090;18.348;2023-05-10T01:05:30;17.30;79.00
65582;DHT22;52231;40.090;18.348;2023-05-10T01:07:59;17.20;79.10
65582;DHT22;52231;40.090;18.348;2023-05-10T01:10:30;17.20;79.30
65582;DHT22;52231;40.090;18.348;2023-05-10T01:12:59;17.20;79.60
65582;DHT22;52231;40.090;18.348;2023-05-10T01:15:28;17.20;79.70
65582;DHT22;52231;40.090;18.348;2023-05-10T01:17:56;17.10;79.80
65582;DHT22;52231;40.090;18.348;2023-05-10T01:20:25;17.10;80.00
65582;DHT22;52231;40.090;18.348;2023-05-10T01:23:02;17.10;80.10
65582;DHT22;52231;40.090;18.348;2023-05-10T01:34:06;17.00;80.60
65582;DHT22;52231;40.090;18.348;2023-05-10T01:36:51;17.00;80.70
65582;DHT22;52231;40.090;18.348;2023-05-10T01:42:12;16.90;81.00
65582;DHT22;52231;40.090;18.348;2023-05-10T01:44:49;16.90;81.20
65582;DHT22;52231;40.090;18.348;2023-05-10T01:50:02;16.90;81.60
65582;DHT22;52231;40.090;18.348;2023-05-10T01:52:33;16.90;81.70
65582;DHT22;52231;40.090;18.348;2023-05-10T01:55:16;16.90;81.80
65582;DHT22;52231;40.090;18.348;2023-05-10T01:57:48;16.90;81.80
65582;DHT22;52231;40.090;18.348;2023-05-10T02:00:20;16.80;81.90
65582;DHT22;52231;40.090;18.348;2023-05-10T02:02:52;16.90;81.90
65582;DHT22;52231;40.090;18.348;2023-05-10T02:05:21;16.90;81.90
65582;DHT22;52231;40.090;18.348;2023-05-10T02:07:51;16.90;81.90
65582;DHT22;52231;40.090;18.348;2023-05-10T02:10:20;16.90;81.80
65582;DHT22;52231;40.090;18.348;2023-05-10T02:12:49;16.80;81.90
65582;DHT22;52231;40.090;18.348;2023-05-10T02:15:22;16.80;81.90
65582;DHT22;52231;40.090;18.348;2023-05-10T02:17:53;16.80;82.00
65582;DHT22;52231;40.090;18.348;2023-05-10T02:20:23;16.90;82.00
65582;DHT22;52231;40.090;18.348;2023-05-10T02:22:54;16.80;81.90
65582;DHT22;52231;40.090;18.348;2023-05-10T02:25:24;16.90;82.00
65582;DHT22;52231;40.090;18.348;2023-05-10T02:27:55;16.80;82.00
65582;DHT22;52231;40.090;18.348;2023-05-10T02:30:24;16.80;81.90
65582;DHT22;52231;40.090;18.348;2023-05-10T02:32:53;16.80;82.00
65582;DHT22;52231;40.090;18.348;2023-05-10T02:35:22;16.70;82.20
65582;DHT22;52231;40.090;18.348;2023-05-10T02:37:51;16.70;82.30
65582;DHT22;52231;40.090;18.348;2023-05-10T02:40:21;16.70;82.40
65582;DHT22;52231;40.090;18.348;2023-05-10T02:42:52;16.60;82.50
65582;DHT22;52231;40.090;18.348;2023-05-10T02:45:27;16.70;82.60
65582;DHT22;52231;40.090;18.348;2023-05-10T02:47:56;16.70;82.60
65582;DHT22;52231;40.090;18.348;2023-05-10T02:50:28;16.60;82.70
65582;DHT22;52231;40.090;18.348;2023-05-10T02:53:00;16.60;82.70
65582;DHT22;52231;40.090;18.348;2023-05-10T02:55:36;16.60;82.70
65582;DHT22;52231;40.090;18.348;2023-05-10T02:58:06;16.60;82.70
65582;DHT22;52231;40.090;18.348;2023-05-10T03:00:34;16.60;82.70
65582;DHT22;52231;40.090;18.348;2023-05-10T03:03:04;16.60;82.70
65582;DHT22;52231;40.090;18.348;2023-05-10T03:05:32;16.60;82.70
65582;DHT22;52231;40.090;18.348;2023-05-10T03:08:03;16.60;82.60
65582;DHT22;52231;40.090;18.348;2023-05-10T03:10:33;16.60;82.60
65582;DHT22;52231;40.090;18.348;2023-05-10T03:13:31;16.60;82.60
65582;DHT22;52231;40.090;18.348;2023-05-10T03:16:14;16.60;82.60
65582;DHT22;52231;40.090;18.348;2023-05-10T03:18:54;16.60;82.70
65582;DHT22;52231;40.090;18.348;2023-05-10T03:21:26;16.60;82.70
65582;DHT22;52231;40.090;18.348;2023-05-10T03:24:07;16.50;82.80
65582;DHT22;52231;40.090;18.348;2023-05-10T03:26:37;16.50;82.90
65582;DHT22;52231;40.090;18.348;2023-05-10T03:29:14;16.60;82.90
65582;DHT22;52231;40.090;18.348;2023-05-10T03:31:44;16.50;82.90
65582;DHT22;52231;40.090;18.348;2023-05-10T03:34:14;16.60;83.00
65582;DHT22;52231;40.090;18.348;2023-05-10T03:36:43;16.60;83.00
65582;DHT22;52231;40.090;18.348;2023-05-10T03:39:11;16.60;82.90
65582;DHT22;52231;40.090;18.348;2023-05-10T03:41:40;16.60;82.90
65582;DHT22;52231;40.090;18.348;2023-05-10T03:44:09;16.60;82.80
65582;DHT22;52231;40.090;18.348;2023-05-10T03:46:37;16.60;82.80
65582;DHT22;52231;40.090;18.348;2023-05-10T03:49:05;16.60;82.70
65582;DHT22;52231;40.090;18.348;2023-05-10T03:51:34;16.60;82.70
65582;DHT22;52231;40.090;18.348;2023-05-10T03:54:02;16.60;82.80
65582;DHT22;52231;40.090;18.348;2023-05-10T03:56:30;16.60;82.80
65582;DHT22;52231;40.090;18.348;2023-05-10T03:58:59;16.60;82.80
65582;DHT22;52231;40.090;18.348;2023-05-10T04:01:27;16.60;82.80
65582;DHT22;52231;40.090;18.348;2023-05-10T04:03:55;16.50;83.00
65582;DHT22;52231;40.090;18.348;2023-05-10T04:06:23;16.50;83.20
65582;DHT22;52231;40.090;18.348;2023-05-10T04:08:52;16.50;83.30
65582;DHT22;52231;40.090;18.348;2023-05-10T04:11:20;16.60;83.20
65582;DHT22;52231;40.090;18.348;2023-05-10T04:13:49;16.60;83.10
65582;DHT22;52231;40.090;18.348;2023-05-10T04:16:18;16.60;83.00
65582;DHT22;52231;40.090;18.348;2023-05-10T04:18:46;16.70;83.00
65582;DHT22;52231;40.090;18.348;2023-05-10T04:21:15;16.80;82.90
65582;DHT22;52231;40.090;18.348;2023-05-10T04:23:43;16.80;82.80
65582;DHT22;52231;40.090;18.348;2023-05-10T04:26:12;16.90;82.70
65582;DHT22;52231;40.090;18.348;2023-05-10T04:28:40;17.00;82.70
65582;DHT22;52231;40.090;18.348;2023-05-10T04:31:09;17.00;82.20
65582;DHT22;52231;40.090;18.348;2023-05-10T04:33:38;17.10;82.20
65582;DHT22;52231;40.090;18.348;2023-05-10T04:36:06;17.20;82.00
65582;DHT22;52231;40.090;18.348;2023-05-10T04:38:34;17.30;81.80
65582;DHT22;52231;40.090;18.348;2023-05-10T04:41:09;17.30;81.40
65582;DHT22;52231;40.090;18.348;2023-05-10T04:43:38;17.30;80.90
65582;DHT22;52231;40.090;18.348;2023-05-10T04:46:06;17.30;80.70
65582;DHT22;52231;40.090;18.348;2023-05-10T04:48:37;17.40;80.80
65582;DHT22;52231;40.090;18.348;2023-05-10T04:51:05;17.50;80.50
65582;DHT22;52231;40.090;18.348;2023-05-10T04:53:34;17.60;80.40
65582;DHT22;52231;40.090;18.348;2023-05-10T04:56:02;17.70;80.40
65582;DHT22;52231;40.090;18.348;2023-05-10T04:58:30;17.80;80.10
65582;DHT22;52231;40.090;18.348;2023-05-10T05:01:05;17.90;80.00
65582;DHT22;52231;40.090;18.348;2023-05-10T05:03:34;17.90;79.80
65582;DHT22;52231;40.090;18.348;2023-05-10T05:06:03;17.80;80.10
65582;DHT22;52231;40.090;18.348;2023-05-10T05:08:31;17.80;81.10
65582;DHT22;52231;40.090;18.348;2023-05-10T05:10:59;17.70;81.80
65582;DHT22;52231;40.090;18.348;2023-05-10T05:13:28;17.60;82.70
65582;DHT22;52231;40.090;18.348;2023-05-10T05:15:56;17.40;83.30
65582;DHT22;52231;40.090;18.348;2023-05-10T05:18:24;17.40;83.70
65582;DHT22;52231;40.090;18.348;2023-05-10T05:20:52;17.40;83.60
65582;DHT22;52231;40.090;18.348;2023-05-10T05:23:20;17.40;83.80
65582;DHT22;52231;40.090;18.348;2023-05-10T05:25:52;17.50;83.90
65582;DHT22;52231;40.090;18.348;2023-05-10T05:28:21;17.70;84.10
65582;DHT22;52231;40.090;18.348;2023-05-10T05:30:49;17.70;83.50
65582;DHT22;52231;40.090;18.348;2023-05-10T05:33:17;17.80;83.50
65582;DHT22;52231;40.090;18.348;2023-05-10T05:35:45;17.90;83.50
65582;DHT22;52231;40.090;18.348;2023-05-10T05:38:18;18.00;83.60
65582;DHT22;52231;40.090;18.348;2023-05-10T05:40:46;18.20;83.20
65582;DHT22;52231;40.090;18.348;2023-05-10T05:43:14;18.40;82.90
65582;DHT22;52231;40.090;18.348;2023-05-10T05:45:45;18.70;82.50
65582;DHT22;52231;40.090;18.348;2023-05-10T05:48:13;18.80;81.60
65582;DHT22;52231;40.090;18.348;2023-05-10T05:50:41;19.10;81.20
65582;DHT22;52231;40.090;18.348;2023-05-10T05:53:10;19.40;80.30
65582;DHT22;52231;40.090;18.348;2023-05-10T05:55:38;19.70;79.00
65582;DHT22;52231;40.090;18.348;2023-05-10T05:58:06;20.10;78.40
65582;DHT22;52231;40.090;18.348;2023-05-10T06:00:34;20.50;77.00
65582;DHT22;52231;40.090;18.348;2023-05-10T06:03:03;20.80;74.30
65582;DHT22;52231;40.090;18.348;2023-05-10T06:05:31;21.20;74.40
65582;DHT22;52231;40.090;18.348;2023-05-10T06:07:59;21.10;72.10
65582;DHT22;52231;40.090;18.348;2023-05-10T06:10:28;21.30;72.10
65582;DHT22;52231;40.090;18.348;2023-05-10T06:12:58;21.30;71.20
65582;DHT22;52231;40.090;18.348;2023-05-10T06:15:26;21.00;71.10
65582;DHT22;52231;40.090;18.348;2023-05-10T06:17:55;20.80;72.00
65582;DHT22;52231;40.090;18.348;2023-05-10T06:20:23;20.80;71.80
65582;DHT22;52231;40.090;18.348;2023-05-10T06:22:51;20.80;71.60
65582;DHT22;52231;40.090;18.348;2023-05-10T06:25:20;20.80;71.40
65582;DHT22;52231;40.090;18.348;2023-05-10T06:27:48;20.50;71.90
65582;DHT22;52231;40.090;18.348;2023-05-10T06:30:18;20.40;71.90
65582;DHT22;52231;40.090;18.348;2023-05-10T06:32:46;20.40;72.80
65582;DHT22;52231;40.090;18.348;2023-05-10T06:35:14;20.50;72.20
65582;DHT22;52231;40.090;18.348;2023-05-10T06:37:42;20.60;71.80
65582;DHT22;52231;40.090;18.348;2023-05-10T06:40:11;20.70;71.30
65582;DHT22;52231;40.090;18.348;2023-05-10T06:42:39;20.70;70.80
65582;DHT22;52231;40.090;18.348;2023-05-10T06:45:08;20.70;71.00
65582;DHT22;52231;40.090;18.348;2023-05-10T06:47:36;20.70;71.00
65582;DHT22;52231;40.090;18.348;2023-05-10T06:50:06;20.80;70.20
65582;DHT22;52231;40.090;18.348;2023-05-10T06:52:35;20.80;70.20
65582;DHT22;52231;40.090;18.348;2023-05-10T06:55:04;20.80;70.20
65582;DHT22;52231;40.090;18.348;2023-05-10T06:57:32;20.90;70.40
65582;DHT22;52231;40.090;18.348;2023-05-10T07:00:00;20.90;69.40
65582;DHT22;52231;40.090;18.348;2023-05-10T07:02:29;20.80;69.90
65582;DHT22;52231;40.090;18.348;2023-05-10T07:04:57;20.90;69.50
65582;DHT22;52231;40.090;18.348;2023-05-10T07:07:26;20.90;69.40
65582;DHT22;52231;40.090;18.348;2023-05-10T07:09:54;21.20;69.20
65582;DHT22;52231;40.090;18.348;2023-05-10T07:12:24;21.10;69.40
65582;DHT22;52231;40.090;18.348;2023-05-10T07:14:53;21.10;69.00
65582;DHT22;52231;40.090;18.348;2023-05-10T07:17:21;21.30;69.60
65582;DHT22;52231;40.090;18.348;2023-05-10T07:19:49;21.50;69.10
65582;DHT22;52231;40.090;18.348;2023-05-10T07:22:17;21.60;68.80
65582;DHT22;52231;40.090;18.348;2023-05-10T07:24:45;21.80;68.40
65582;DHT22;52231;40.090;18.348;2023-05-10T07:27:13;22.00;67.80
65582;DHT22;52231;40.090;18.348;2023-05-10T07:29:42;21.90;67.80
65582;DHT22;52231;40.090;18.348;2023-05-10T07:32:10;21.80;67.80
65582;DHT22;52231;40.090;18.348;2023-05-10T07:34:38;21.90;67.90
65582;DHT22;52231;40.090;18.348;2023-05-10T07:37:06;21.90;68.10
65582;DHT22;52231;40.090;18.348;2023-05-10T07:39:35;21.90;67.80
65582;DHT22;52231;40.090;18.348;2023-05-10T07:42:03;21.80;67.80
65582;DHT22;52231;40.090;18.348;2023-05-10T07:44:31;21.80;68.60
65582;DHT22;52231;40.090;18.348;2023-05-10T07:46:59;21.70;69.10
65582;DHT22;52231;40.090;18.348;2023-05-10T07:49:31;21.70;69.40
65582;DHT22;52231;40.090;18.348;2023-05-10T07:51:59;21.80;69.30
65582;DHT22;52231;40.090;18.348;2023-05-10T07:54:27;21.80;68.80
65582;DHT22;52231;40.090;18.348;2023-05-10T07:56:55;21.80;68.40
65582;DHT22;52231;40.090;18.348;2023-05-10T07:59:23;21.80;68.30
65582;DHT22;52231;40.090;18.348;2023-05-10T08:01:51;21.80;67.80
65582;DHT22;52231;40.090;18.348;2023-05-10T08:04:20;21.90;67.90
65582;DHT22;52231;40.090;18.348;2023-05-10T08:06:47;21.90;67.00
65582;DHT22;52231;40.090;18.348;2023-05-10T08:09:16;21.80;67.00
65582;DHT22;52231;40.090;18.348;2023-05-10T08:11:45;21.80;67.30
65582;DHT22;52231;40.090;18.348;2023-05-10T08:14:13;21.90;67.30
65582;DHT22;52231;40.090;18.348;2023-05-10T08:16:41;22.10;67.60
65582;DHT22;52231;40.090;18.348;2023-05-10T08:19:09;22.40;66.50
65582;DHT22;52231;40.090;18.348;2023-05-10T08:21:38;22.40;65.20
65582;DHT22;52231;40.090;18.348;2023-05-10T08:24:08;22.50;64.40
65582;DHT22;52231;40.090;18.348;2023-05-10T08:26:36;22.40;64.00
65582;DHT22;52231;40.090;18.348;2023-05-10T08:29:04;22.40;63.70
65582;DHT22;52231;40.090;18.348;2023-05-10T08:31:32;22.40;63.50
65582;DHT22;52231;40.090;18.348;2023-05-10T08:34:00;22.80;63.30
65582;DHT22;52231;40.090;18.348;2023-05-10T08:36:28;23.10;63.20
65582;DHT22;52231;40.090;18.348;2023-05-10T08:38:58;23.10;61.90
65582;DHT22;52231;40.090;18.348;2023-05-10T08:41:26;23.20;61.90
65582;DHT22;52231;40.090;18.348;2023-05-10T08:43:55;23.40;61.40
65582;DHT22;52231;40.090;18.348;2023-05-10T08:46:23;23.50;60.90
65582;DHT22;52231;40.090;18.348;2023-05-10T08:48:51;23.70;59.70
65582;DHT22;52231;40.090;18.348;2023-05-10T08:51:24;23.80;58.50
65582;DHT22;52231;40.090;18.348;2023-05-10T08:53:54;24.00;57.10
65582;DHT22;52231;40.090;18.348;2023-05-10T08:56:23;24.10;55.80
65582;DHT22;52231;40.090;18.348;2023-05-10T08:58:52;24.40;55.90
65582;DHT22;52231;40.090;18.348;2023-05-10T09:01:21;24.60;53.90
65582;DHT22;52231;40.090;18.348;2023-05-10T09:03:50;24.80;53.60
65582;DHT22;52231;40.090;18.348;2023-05-10T09:06:18;25.00;52.00
65582;DHT22;52231;40.090;18.348;2023-05-10T09:08:47;25.10;50.70
65582;DHT22;52231;40.090;18.348;2023-05-10T09:11:16;25.00;50.10
65582;DHT22;52231;40.090;18.348;2023-05-10T09:13:45;25.10;50.50
65582;DHT22;52231;40.090;18.348;2023-05-10T09:16:13;25.20;48.90
65582;DHT22;52231;40.090;18.348;2023-05-10T09:18:47;25.30;49.10
65582;DHT22;52231;40.090;18.348;2023-05-10T09:21:17;25.30;48.10
65582;DHT22;52231;40.090;18.348;2023-05-10T09:23:47;25.30;48.50
65582;DHT22;52231;40.090;18.348;2023-05-10T09:26:22;25.20;48.90
65582;DHT22;52231;40.090;18.348;2023-05-10T09:28:59;25.30;48.10
65582;DHT22;52231;40.090;18.348;2023-05-10T09:31:44;25.20;47.80
65582;DHT22;52231;40.090;18.348;2023-05-10T09:34:19;25.30;46.90
65582;DHT22;52231;40.090;18.348;2023-05-10T09:36:51;25.70;46.90
65582;DHT22;52231;40.090;18.348;2023-05-10T09:39:20;26.10;44.40
65582;DHT22;52231;40.090;18.348;2023-05-10T09:41:48;26.20;45.30
65582;DHT22;52231;40.090;18.348;2023-05-10T09:44:17;26.20;44.50
65582;DHT22;52231;40.090;18.348;2023-05-10T09:46:50;26.20;44.10
65582;DHT22;52231;40.090;18.348;2023-05-10T09:49:21;26.30;43.90
65582;DHT22;52231;40.090;18.348;2023-05-10T09:52:04;26.30;44.00
65582;DHT22;52231;40.090;18.348;2023-05-10T09:54:33;26.00;44.30
65582;DHT22;52231;40.090;18.348;2023-05-10T09:57:02;26.10;44.00
65582;DHT22;52231;40.090;18.348;2023-05-10T09:59:33;26.30;43.50
65582;DHT22;52231;40.090;18.348;2023-05-10T10:02:03;26.50;43.20
65582;DHT22;52231;40.090;18.348;2023-05-10T10:04:31;26.50;42.90
65582;DHT22;52231;40.090;18.348;2023-05-10T10:07:04;26.40;43.80
65582;DHT22;52231;40.090;18.348;2023-05-10T10:09:34;26.60;43.80
65582;DHT22;52231;40.090;18.348;2023-05-10T10:12:03;26.70;43.30
65582;DHT22;52231;40.090;18.348;2023-05-10T10:14:33;26.80;43.70
65582;DHT22;52231;40.090;18.348;2023-05-10T10:17:02;26.80;42.90
65582;DHT22;52231;40.090;18.348;2023-05-10T10:19:34;26.90;43.20
65582;DHT22;52231;40.090;18.348;2023-05-10T10:22:05;26.60;42.90
65582;DHT22;52231;40.090;18.348;2023-05-10T10:24:34;26.30;43.70
65582;DHT22;52231;40.090;18.348;2023-05-10T10:27:24;26.30;44.10
65582;DHT22;52231;40.090;18.348;2023-05-10T10:30:09;25.60;45.20
65582;DHT22;52231;40.090;18.348;2023-05-10T10:35:55;25.60;45.20
65582;DHT22;52231;40.090;18.348;2023-05-10T10:38:23;25.70;45.70
65582;DHT22;52231;40.090;18.348;2023-05-10T10:47:23;25.10;46.00
65582;DHT22;52231;40.090;18.348;2023-05-10T10:52:47;25.40;47.00
65582;DHT22;52231;40.090;18.348;2023-05-10T10:55:19;25.70;46.90
65582;DHT22;52231;40.090;18.348;2023-05-10T10:57:55;25.80;46.30
65582;DHT22;52231;40.090;18.348;2023-05-10T11:00:34;25.50;46.60
65582;DHT22;52231;40.090;18.348;2023-05-10T11:03:04;25.30;48.00
65582;DHT22;52231;40.090;18.348;2023-05-10T11:05:39;25.20;48.10
65582;DHT22;52231;40.090;18.348;2023-05-10T11:10:50;25.40;47.90
65582;DHT22;52231;40.090;18.348;2023-05-10T11:13:34;25.30;48.20
65582;DHT22;52231;40.090;18.348;2023-05-10T11:16:17;25.20;48.40
65582;DHT22;52231;40.090;18.348;2023-05-10T11:19:10;25.40;47.00
65582;DHT22;52231;40.090;18.348;2023-05-10T11:21:52;25.50;46.00
65582;DHT22;52231;40.090;18.348;2023-05-10T11:24:39;25.90;45.20
65582;DHT22;52231;40.090;18.348;2023-05-10T11:27:07;26.00;44.70
65582;DHT22;52231;40.090;18.348;2023-05-10T11:29:35;26.30;44.10
65582;DHT22;52231;40.090;18.348;2023-05-10T11:32:05;26.60;44.10
65582;DHT22;52231;40.090;18.348;2023-05-10T11:34:36;26.70;43.50
65582;DHT22;52231;40.090;18.348;2023-05-10T11:37:04;27.20;43.20
65582;DHT22;52231;40.090;18.348;2023-05-10T11:39:32;28.00;41.60
65582;DHT22;52231;40.090;18.348;2023-05-10T11:42:01;28.50;40.50
65582;DHT22;52231;40.090;18.348;2023-05-10T11:44:30;29.00;40.30
65582;DHT22;52231;40.090;18.348;2023-05-10T11:47:02;28.90;39.10
65582;DHT22;52231;40.090;18.348;2023-05-10T11:49:31;28.30;40.30
65582;DHT22;52231;40.090;18.348;2023-05-10T11:52:06;27.50;41.70
65582;DHT22;52231;40.090;18.348;2023-05-10T11:54:35;27.40;42.90
65582;DHT22;52231;40.090;18.348;2023-05-10T11:57:04;27.10;43.40
65582;DHT22;52231;40.090;18.348;2023-05-10T11:59:32;26.70;44.20
65582;DHT22;52231;40.090;18.348;2023-05-10T12:02:01;26.40;45.50
65582;DHT22;52231;40.090;18.348;2023-05-10T12:04:30;26.20;45.80
65582;DHT22;52231;40.090;18.348;2023-05-10T12:06:59;26.20;45.70
65582;DHT22;52231;40.090;18.348;2023-05-10T12:09:27;26.20;45.70
65582;DHT22;52231;40.090;18.348;2023-05-10T12:12:02;26.00;45.90
65582;DHT22;52231;40.090;18.348;2023-05-10T12:14:34;25.80;45.50
65582;DHT22;52231;40.090;18.348;2023-05-10T12:17:03;25.80;45.80
65582;DHT22;52231;40.090;18.348;2023-05-10T12:19:38;25.70;46.00
65582;DHT22;52231;40.090;18.348;2023-05-10T12:22:06;25.70;46.00
65582;DHT22;52231;40.090;18.348;2023-05-10T12:24:37;26.10;45.70
65582;DHT22;52231;40.090;18.348;2023-05-10T12:27:08;26.00;45.30
65582;DHT22;52231;40.090;18.348;2023-05-10T12:29:59;25.70;45.70
65582;DHT22;52231;40.090;18.348;2023-05-10T12:32:44;25.50;46.40
65582;DHT22;52231;40.090;18.348;2023-05-10T12:35:12;25.80;45.80
65582;DHT22;52231;40.090;18.348;2023-05-10T12:37:41;25.60;45.60
65582;DHT22;52231;40.090;18.348;2023-05-10T12:40:11;25.50;46.30
65582;DHT22;52231;40.090;18.348;2023-05-10T12:42:39;25.10;46.80
65582;DHT22;52231;40.090;18.348;2023-05-10T12:45:08;25.00;47.70
65582;DHT22;52231;40.090;18.348;2023-05-10T12:47:37;24.80;48.30
65582;DHT22;52231;40.090;18.348;2023-05-10T12:50:06;24.70;49.00
65582;DHT22;52231;40.090;18.348;2023-05-10T12:52:35;24.90;48.20
65582;DHT22;52231;40.090;18.348;2023-05-10T12:55:05;24.80;48.70
65582;DHT22;52231;40.090;18.348;2023-05-10T12:57:37;24.90;48.20
65582;DHT22;52231;40.090;18.348;2023-05-10T13:00:06;24.80;48.40
65582;DHT22;52231;40.090;18.348;2023-05-10T13:02:34;24.60;48.30
65582;DHT22;52231;40.090;18.348;2023-05-10T13:05:03;24.60;49.00
65582;DHT22;52231;40.090;18.348;2023-05-10T13:07:31;24.80;48.00
65582;DHT22;52231;40.090;18.348;2023-05-10T13:10:00;25.10;47.70
65582;DHT22;52231;40.090;18.348;2023-05-10T13:12:29;25.30;46.50
65582;DHT22;52231;40.090;18.348;2023-05-10T13:14:57;25.40;46.50
65582;DHT22;52231;40.090;18.348;2023-05-10T13:17:25;25.50;45.40
65582;DHT22;52231;40.090;18.348;2023-05-10T13:19:54;25.60;45.80
65582;DHT22;52231;40.090;18.348;2023-05-10T13:22:23;25.50;45.20
65582;DHT22;52231;40.090;18.348;2023-05-10T13:24:59;25.20;45.90
65582;DHT22;52231;40.090;18.348;2023-05-10T13:27:28;25.40;45.90
65582;DHT22;52231;40.090;18.348;2023-05-10T13:29:56;25.40;45.70
65582;DHT22;52231;40.090;18.348;2023-05-10T13:32:27;25.40;45.50
65582;DHT22;52231;40.090;18.348;2023-05-10T13:34:55;25.80;45.10
65582;DHT22;52231;40.090;18.348;2023-05-10T13:37:24;25.80;45.00
65582;DHT22;52231;40.090;18.348;2023-05-10T13:39:52;25.40;44.90
65582;DHT22;52231;40.090;18.348;2023-05-10T13:42:24;25.30;45.50
65582;DHT22;52231;40.090;18.348;2023-05-10T13:44:56;25.10;46.00
65582;DHT22;52231;40.090;18.348;2023-05-10T13:47:31;25.00;46.30
65582;DHT22;52231;40.090;18.348;2023-05-10T13:49:59;24.90;47.20
65582;DHT22;52231;40.090;18.348;2023-05-10T13:52:29;24.80;47.30
65582;DHT22;52231;40.090;18.348;2023-05-10T13:54:57;24.80;47.40
65582;DHT22;52231;40.090;18.348;2023-05-10T13:57:25;24.80;47.70
65582;DHT22;52231;40.090;18.348;2023-05-10T13:59:53;24.50;48.00
65582;DHT22;52231;40.090;18.348;2023-05-10T14:02:22;24.40;48.80
65582;DHT22;52231;40.090;18.348;2023-05-10T14:04:50;24.00;49.00
65582;DHT22;52231;40.090;18.348;2023-05-10T14:07:19;23.80;49.80
65582;DHT22;52231;40.090;18.348;2023-05-10T14:09:47;23.60;49.70
65582;DHT22;52231;40.090;18.348;2023-05-10T14:12:15;23.40;49.80
65582;DHT22;52231;40.090;18.348;2023-05-10T14:14:44;23.50;50.10
65582;DHT22;52231;40.090;18.348;2023-05-10T14:17:12;23.60;49.60
65582;DHT22;52231;40.090;18.348;2023-05-10T14:19:41;23.80;49.40
65582;DHT22;52231;40.090;18.348;2023-05-10T14:22:09;23.90;48.80
65582;DHT22;52231;40.090;18.348;2023-05-10T14:24:37;23.50;48.70
65582;DHT22;52231;40.090;18.348;2023-05-10T14:27:05;23.40;49.40
65582;DHT22;52231;40.090;18.348;2023-05-10T14:29:33;23.60;49.80
65582;DHT22;52231;40.090;18.348;2023-05-10T14:32:01;23.70;50.40
65582;DHT22;52231;40.090;18.348;2023-05-10T14:34:30;23.90;49.60
65582;DHT22;52231;40.090;18.348;2023-05-10T14:36:58;23.90;52.70
65582;DHT22;52231;40.090;18.348;2023-05-10T14:39:27;23.80;52.60
65582;DHT22;52231;40.090;18.348;2023-05-10T14:41:57;23.50;53.60
65582;DHT22;52231;40.090;18.348;2023-05-10T14:44:26;23.30;54.50
65582;DHT22;52231;40.090;18.348;2023-05-10T14:46:56;22.90;55.10
65582;DHT22;52231;40.090;18.348;2023-05-10T14:49:24;22.80;55.40
65582;DHT22;52231;40.090;18.348;2023-05-10T14:51:53;22.60;55.60
65582;DHT22;52231;40.090;18.348;2023-05-10T14:54:21;22.30;56.10
65582;DHT22;52231;40.090;18.348;2023-05-10T14:56:49;22.20;56.40
65582;DHT22;52231;40.090;18.348;2023-05-10T14:59:18;21.90;57.90
65582;DHT22;52231;40.090;18.348;2023-05-10T15:01:46;21.70;59.40
65582;DHT22;52231;40.090;18.348;2023-05-10T15:04:14;21.30;60.20
65582;DHT22;52231;40.090;18.348;2023-05-10T15:06:44;21.30;61.10
65582;DHT22;52231;40.090;18.348;2023-05-10T15:09:12;21.00;61.80
65582;DHT22;52231;40.090;18.348;2023-05-10T15:11:40;20.80;62.20
65582;DHT22;52231;40.090;18.348;2023-05-10T15:14:08;20.60;63.00
65582;DHT22;52231;40.090;18.348;2023-05-10T15:16:37;20.30;65.10
65582;DHT22;52231;40.090;18.348;2023-05-10T15:19:05;20.10;66.20
65582;DHT22;52231;40.090;18.348;2023-05-10T15:21:33;20.00;67.90
65582;DHT22;52231;40.090;18.348;2023-05-10T15:24:06;19.80;69.70
65582;DHT22;52231;40.090;18.348;2023-05-10T15:26:34;19.60;70.60
65582;DHT22;52231;40.090;18.348;2023-05-10T15:29:02;19.30;71.20
65582;DHT22;52231;40.090;18.348;2023-05-10T15:31:31;19.10;71.80
65582;DHT22;52231;40.090;18.348;2023-05-10T15:33:59;19.00;72.10
65582;DHT22;52231;40.090;18.348;2023-05-10T15:36:27;18.80;71.60
65582;DHT22;52231;40.090;18.348;2023-05-10T15:38:55;18.80;72.40
65582;DHT22;52231;40.090;18.348;2023-05-10T15:41:23;18.90;72.20
65582;DHT22;52231;40.090;18.348;2023-05-10T15:43:53;18.80;71.50
65582;DHT22;52231;40.090;18.348;2023-05-10T15:46:21;18.90;70.40
65582;DHT22;52231;40.090;18.348;2023-05-10T15:48:49;18.90;69.70
65582;DHT22;52231;40.090;18.348;2023-05-10T15:51:17;18.90;70.00
65582;DHT22;52231;40.090;18.348;2023-05-10T15:53:46;18.90;70.10
65582;DHT22;52231;40.090;18.348;2023-05-10T15:56:23;19.10;69.80
65582;DHT22;52231;40.090;18.348;2023-05-10T15:58:51;19.00;69.40
65582;DHT22;52231;40.090;18.348;2023-05-10T16:01:19;19.00;69.60